Two Buttes, Colorado
Current Conditions -  °F | °C
As of 2:53 AM on Tuesday 27 Jan 2015 (Local Time) from KLAA Reporting Station
Clear Clear  
Wind Chill: 30°   Ceiling: Unl
Heat Index: 36°   Visibility: 10mi
Dew Point: 30°   Wind: 7mph
Humidity: 79%   Direction: 260°W
Pressure: 30.16"   Gusts: NA
Location:  37.56°N, 102.4°W
Report Text: KLAA 270953Z AUTO 26006KT 10SM CLR 02/M01 A3016 RMK AO2 SLP194 T00221011
Loading
Personal Weather Stations






























Interactive Weather Map New forecast layout! Learn more

10-Day Weather Forecast

Advertisements
Track Severe Weather on mobile